Time;durP1;ratioP1;P1;durP2;ratioP2;P2;SDS_P1;SDS_P2;PMS_P1;PMS_P2;Temp;Humidity;BMP_temperature;BMP_pressure;BME280_temperature;BME280_humidity;BME280_pressure;Samples;Min_cycle;Max_cycle;Signal;HPM_P1;HPM_P2
2021/01/23 19:55:04;;;;;;;;;;;;;;;5.26;63.76;97580.25;3123881;28;20379;-79
2021/01/23 19:56:35;;;;;;;;;;;;;;;5.08;63.65;97578.66;3130425;28;21936;-79
2021/01/23 19:58:08;;;;;;;;;;;;;;;5.10;63.56;97578.47;3133900;28;22538;-78
2021/01/23 19:59:39;;;;;;;;;;;;;;;5.13;63.47;97581.59;3132326;28;19960;-79
2021/01/23 20:01:10;;;;;;;;;;;;;;;5.13;63.50;97573.66;3129673;28;20081;-80
2021/01/23 20:02:41;;;;;;;;;;;;;;;5.14;63.31;97583.25;3132124;28;19932;-78
2021/01/23 20:04:12;;;;;;;;;;;;;;;5.14;63.23;97580.59;3131051;28;19935;-79
2021/01/23 20:05:43;;;;;;;;;;;;;;;5.21;63.29;97582.56;3129741;28;19925;-79
2021/01/23 20:07:14;;;;;;;;;;;;;;;5.19;63.19;97585.41;3129474;28;19983;-80
2021/01/23 20:08:45;;;;;;;;;;;;;;;5.21;63.04;97590.50;3138541;28;19924;-80
2021/01/23 20:10:17;;;;;;;;;;;;;;;5.18;63.07;97589.03;3130980;28;19941;-79
2021/01/23 20:11:48;;;;;;;;;;;;;;;5.15;63.17;97584.06;3129259;28;20433;-80
2021/01/23 20:13:19;;;;;;;;;;;;;;;5.22;63.08;97578.94;3129927;28;19986;-80
2021/01/23 20:14:50;;;;;;;;;;;;;;;5.26;63.23;97582.91;3134764;28;20383;-80
2021/01/23 20:16:22;;;;;;;;;;;;;;;5.24;63.02;97580.41;3131509;28;20391;-80
2021/01/23 20:17:53;;;;;;;;;;;;;;;5.18;63.27;97578.44;3129192;28;19933;-80
2021/01/23 20:19:26;;;;;;;;;;;;;;;5.10;63.45;97589.88;3132604;28;19967;-79
2021/01/23 20:20:57;;;;;;;;;;;;;;;5.01;63.48;97582.94;3132443;28;19932;-79
2021/01/23 20:22:28;;;;;;;;;;;;;;;4.99;63.81;97587.63;3121103;28;20040;-81
2021/01/23 20:24:00;;;;;;;;;;;;;;;5.03;63.77;97583.63;3120984;28;20033;-80
2021/01/23 20:25:32;;;;;;;;;;;;;;;4.90;64.30;97592.09;3122130;28;19929;-80
2021/01/23 20:27:04;;;;;;;;;;;;;;;4.76;65.00;97595.44;3130724;28;19967;-80
2021/01/23 20:28:35;;;;;;;;;;;;;;;4.82;65.24;97584.97;3130527;28;19932;-78
2021/01/23 20:30:06;;;;;;;;;;;;;;;4.78;65.50;97590.78;3138441;28;19925;-78
2021/01/23 20:31:38;;;;;;;;;;;;;;;4.80;66.00;97592.28;3131923;28;19929;-79
2021/01/23 20:33:09;;;;;;;;;;;;;;;4.74;66.36;97592.13;3135373;28;19925;-78
2021/01/23 20:34:42;;;;;;;;;;;;;;;4.67;66.31;97598.09;3129942;28;19967;-80
2021/01/23 20:36:13;;;;;;;;;;;;;;;4.53;68.63;97586.34;3132037;28;20030;-79
2021/01/23 20:37:46;;;;;;;;;;;;;;;4.56;67.07;97593.13;3125227;28;19925;-80
2021/01/23 20:39:17;;;;;;;;;;;;;;;4.38;68.78;97593.28;3131917;28;19925;-78
2021/01/23 20:40:49;;;;;;;;;;;;;;;4.34;69.30;97584.06;3133521;28;19929;-81
2021/01/23 20:42:20;;;;;;;;;;;;;;;4.27;69.09;97590.97;3133889;28;20060;-80
2021/01/23 20:43:51;;;;;;;;;;;;;;;4.14;70.24;97584.38;3117553;28;19957;-80
2021/01/23 20:45:22;;;;;;;;;;;;;;;4.07;71.24;97586.00;3119686;28;20413;-78
2021/01/23 20:46:53;;;;;;;;;;;;;;;4.10;70.94;97592.81;3126566;28;19928;-80
2021/01/23 20:48:23;;;;;;;;;;;;;;;4.00;71.10;97579.72;3136989;28;19929;-81
2021/01/23 20:49:57;;;;;;;;;;;;;;;3.83;72.69;97584.97;3129632;28;19932;-79
2021/01/23 20:51:28;;;;;;;;;;;;;;;3.83;73.08;97584.13;3134181;28;19929;-80
2021/01/23 20:53:00;;;;;;;;;;;;;;;3.69;73.41;97581.16;3115204;28;19932;-81
2021/01/23 20:54:32;;;;;;;;;;;;;;;3.63;74.38;97583.59;3121409;28;19930;-81
2021/01/23 20:56:05;;;;;;;;;;;;;;;3.59;74.68;97583.09;3128957;28;19932;-81
2021/01/23 20:57:38;;;;;;;;;;;;;;;3.54;74.01;97575.66;3134444;28;19936;-81
2021/01/23 20:59:10;;;;;;;;;;;;;;;3.42;74.68;97579.56;3130712;28;19925;-81
2021/01/23 21:00:41;;;;;;;;;;;;;;;3.40;75.28;97578.94;3128479;28;19925;-81
2021/01/23 21:02:12;;;;;;;;;;;;;;;3.33;75.72;97584.00;3124386;28;19971;-79
2021/01/23 21:03:43;;;;;;;;;;;;;;;3.23;76.21;97578.03;3128441;28;19925;-80
2021/01/23 21:05:15;;;;;;;;;;;;;;;3.28;75.52;97568.66;3122440;28;20419;-80
2021/01/23 21:06:46;;;;;;;;;;;;;;;3.24;75.98;97572.56;3130610;28;19925;-79
2021/01/23 21:08:17;;;;;;;;;;;;;;;3.23;76.15;97575.38;3128133;28;19925;-81
2021/01/23 21:09:48;;;;;;;;;;;;;;;3.26;76.08;97569.75;3127421;28;19925;-80
2021/01/23 21:11:20;;;;;;;;;;;;;;;3.29;76.42;97572.09;3130851;28;19932;-80
2021/01/23 21:12:51;;;;;;;;;;;;;;;3.22;76.45;97571.91;3128763;28;19913;-81
2021/01/23 21:14:30;;;;;;;;;;;;;;;3.22;76.04;97563.97;3133658;28;19925;-81
2021/01/23 21:16:04;;;;;;;;;;;;;;;3.20;76.92;97563.34;3123711;28;19947;-82
2021/01/23 21:17:35;;;;;;;;;;;;;;;3.25;75.73;97558.38;3134498;28;19925;-81
2021/01/23 21:19:08;;;;;;;;;;;;;;;3.28;76.81;97560.72;3122464;28;19967;-81
2021/01/23 21:20:42;;;;;;;;;;;;;;;3.27;76.47;97563.50;3137938;28;20421;-81
2021/01/23 21:24:18;;;;;;;;;;;;;;;3.33;76.22;97554.97;3131895;28;19952;-80
2021/01/23 21:25:54;;;;;;;;;;;;;;;3.39;75.84;97556.94;3121162;28;20548;-81
2021/01/23 21:27:26;;;;;;;;;;;;;;;3.34;76.47;97561.06;3131904;28;19932;-81
2021/01/23 21:28:59;;;;;;;;;;;;;;;3.33;76.19;97551.47;3117504;28;19928;-82
2021/01/23 21:30:31;;;;;;;;;;;;;;;3.34;76.57;97555.78;3132659;28;19925;-81
2021/01/23 21:32:14;;;;;;;;;;;;;;;3.43;76.40;97550.38;3118362;28;19936;-81
2021/01/23 21:33:51;;;;;;;;;;;;;;;3.48;77.07;97552.53;3139023;28;19925;-82
2021/01/23 21:37:24;;;;;;;;;;;;;;;3.51;76.03;97551.38;3088107;28;19936;-82
2021/01/23 21:38:56;;;;;;;;;;;;;;;3.54;76.19;97551.88;3119787;28;19976;-81
2021/01/23 21:40:32;;;;;;;;;;;;;;;3.51;76.92;97541.63;3096019;28;19929;-82
2021/01/23 21:42:28;;;;;;;;;;;;;;;3.49;76.33;97548.06;3134121;28;19933;-82
2021/01/23 21:44:07;;;;;;;;;;;;;;;3.52;76.32;97535.34;3121274;28;20392;-82
2021/01/23 21:45:38;;;;;;;;;;;;;;;3.45;76.14;97538.81;3146420;28;19952;-81
2021/01/23 21:47:09;;;;;;;;;;;;;;;3.45;76.11;97537.00;3140053;28;19925;-81
2021/01/23 21:48:41;;;;;;;;;;;;;;;3.41;76.02;97538.28;3134991;28;19925;-82
2021/01/23 21:52:02;;;;;;;;;;;;;;;3.41;76.93;97543.56;3119756;28;19955;-81
2021/01/23 21:53:34;;;;;;;;;;;;;;;3.43;76.71;97529.25;3140464;28;19940;-82
2021/01/23 21:55:05;;;;;;;;;;;;;;;3.44;76.30;97527.41;3124564;28;19995;-82
2021/01/23 21:56:37;;;;;;;;;;;;;;;3.46;75.89;97532.53;3122352;28;19925;-82
2021/01/23 21:58:09;;;;;;;;;;;;;;;3.39;76.21;97537.66;3121460;28;19925;-81
2021/01/23 21:59:42;;;;;;;;;;;;;;;3.38;76.01;97536.00;3127408;28;19979;-81
2021/01/23 22:01:13;;;;;;;;;;;;;;;3.43;76.47;97531.03;3122320;28;19933;-82
2021/01/23 22:02:50;;;;;;;;;;;;;;;3.40;76.32;97524.28;3125048;28;19979;-82
2021/01/23 22:04:28;;;;;;;;;;;;;;;3.39;76.81;97527.09;3116560;28;19933;-82
2021/01/23 22:06:00;;;;;;;;;;;;;;;3.37;76.17;97523.78;3120827;28;19959;-81
2021/01/23 22:07:31;;;;;;;;;;;;;;;3.35;76.67;97525.75;3127884;28;19974;-81
2021/01/23 22:09:03;;;;;;;;;;;;;;;3.37;76.42;97526.41;3131495;28;19932;-82
2021/01/23 22:10:34;;;;;;;;;;;;;;;3.40;76.34;97526.91;3125408;28;20380;-82
2021/01/23 22:12:06;;;;;;;;;;;;;;;3.41;76.69;97530.38;3123236;28;19936;-81
2021/01/23 22:13:37;;;;;;;;;;;;;;;3.40;76.42;97526.91;3126767;28;19932;-81
2021/01/23 22:15:11;;;;;;;;;;;;;;;3.45;75.95;97530.91;3127082;28;19948;-81
2021/01/23 22:16:44;;;;;;;;;;;;;;;3.47;76.18;97532.38;3122378;28;19951;-81
2021/01/23 22:18:17;;;;;;;;;;;;;;;3.51;75.95;97517.84;3131069;28;20325;-81
2021/01/23 22:19:49;;;;;;;;;;;;;;;3.47;75.81;97516.53;3131176;28;19925;-81
2021/01/23 22:21:23;;;;;;;;;;;;;;;3.38;76.21;97523.59;3132983;28;19925;-81
2021/01/23 22:22:54;;;;;;;;;;;;;;;3.45;75.91;97522.97;3132697;28;22392;-83
2021/01/23 22:24:25;;;;;;;;;;;;;;;3.47;76.25;97521.81;3129456;28;19933;-81
2021/01/23 22:25:56;;;;;;;;;;;;;;;3.49;76.17;97519.84;3128485;28;19932;-81
2021/01/23 22:27:28;;;;;;;;;;;;;;;3.55;75.63;97523.63;3130064;28;20406;-81
2021/01/23 22:29:00;;;;;;;;;;;;;;;3.58;75.79;97518.88;3130844;28;19944;-81
2021/01/23 22:30:34;;;;;;;;;;;;;;;3.58;75.72;97533.88;3133225;28;19913;-80
2021/01/23 22:32:06;;;;;;;;;;;;;;;3.57;75.74;97535.72;3135910;28;19921;-81
2021/01/23 22:33:47;;;;;;;;;;;;;;;3.50;76.45;97534.69;3138309;28;19913;-82
2021/01/23 22:35:18;;;;;;;;;;;;;;;3.51;76.10;97536.34;3132973;28;19936;-81
2021/01/23 22:36:50;;;;;;;;;;;;;;;3.53;76.31;97538.84;3136390;28;19909;-82
2021/01/23 22:38:46;;;;;;;;;;;;;;;3.51;76.15;97536.34;3137069;28;19948;-81
2021/01/23 22:40:25;;;;;;;;;;;;;;;3.49;76.25;97530.41;3133984;28;19936;-81
2021/01/23 22:41:56;;;;;;;;;;;;;;;3.51;76.25;97528.41;3134196;28;19925;-81
2021/01/23 22:43:27;;;;;;;;;;;;;;;3.54;76.39;97532.56;3136000;28;19939;-81
2021/01/23 22:45:00;;;;;;;;;;;;;;;3.58;76.46;97526.81;3138036;28;19963;-82
2021/01/23 22:46:34;;;;;;;;;;;;;;;3.65;75.76;97519.03;3134231;28;19952;-81
2021/01/23 22:48:05;;;;;;;;;;;;;;;3.71;76.17;97528.13;3138620;28;19925;-81
2021/01/23 22:49:36;;;;;;;;;;;;;;;3.69;75.62;97524.81;3134157;28;19969;-81
2021/01/23 22:51:08;;;;;;;;;;;;;;;3.72;75.50;97529.78;3140080;28;19921;-80
2021/01/23 22:52:47;;;;;;;;;;;;;;;3.69;75.39;97519.53;3147338;28;19928;-81
2021/01/23 22:54:19;;;;;;;;;;;;;;;3.69;75.42;97527.47;3145307;28;19925;-81
2021/01/23 22:55:49;;;;;;;;;;;;;;;3.69;75.40;97525.66;3140689;28;19925;-81
2021/01/23 22:57:20;;;;;;;;;;;;;;;3.65;75.96;97528.78;3138720;28;19979;-81
2021/01/23 22:58:52;;;;;;;;;;;;;;;3.65;75.45;97528.78;3137619;28;19952;-81
2021/01/23 23:00:40;;;;;;;;;;;;;;;3.67;75.67;97526.81;3140736;28;19924;-82
2021/01/23 23:02:12;;;;;;;;;;;;;;;3.65;75.68;97526.16;3145198;28;19931;-80
2021/01/23 23:03:43;;;;;;;;;;;;;;;3.60;75.58;97534.56;3135043;28;19924;-80
2021/01/23 23:05:14;;;;;;;;;;;;;;;3.61;76.17;97530.09;3133331;28;20328;-81
2021/01/23 23:06:45;;;;;;;;;;;;;;;3.61;76.31;97532.72;3133626;28;19924;-81
2021/01/23 23:08:18;;;;;;;;;;;;;;;3.64;76.43;97535.06;3132665;28;20026;-81
2021/01/23 23:09:49;;;;;;;;;;;;;;;3.68;76.08;97531.13;3134420;28;20366;-81
2021/01/23 23:11:20;;;;;;;;;;;;;;;3.62;75.67;97532.59;3136789;28;19925;-80
2021/01/23 23:12:52;;;;;;;;;;;;;;;3.68;75.93;97523.19;3133067;28;19952;-80
2021/01/23 23:14:23;;;;;;;;;;;;;;;3.73;75.92;97524.31;3136967;28;20371;-81
2021/01/23 23:15:55;;;;;;;;;;;;;;;3.75;75.80;97522.34;3132213;28;20572;-80
2021/01/23 23:17:27;;;;;;;;;;;;;;;3.73;76.14;97528.78;3136848;28;19932;-79
2021/01/23 23:18:59;;;;;;;;;;;;;;;3.82;75.76;97533.09;3134820;28;19965;-81
2021/01/23 23:20:30;;;;;;;;;;;;;;;3.91;75.52;97533.97;3135097;28;19925;-81
2021/01/23 23:22:01;;;;;;;;;;;;;;;3.99;75.38;97538.41;3127383;28;19939;-81
2021/01/23 23:23:32;;;;;;;;;;;;;;;4.01;74.93;97534.63;3133657;28;19925;-81
2021/01/23 23:25:03;;;;;;;;;;;;;;;4.06;76.38;97542.06;3131543;28;19925;-81
2021/01/23 23:26:34;;;;;;;;;;;;;;;4.08;75.68;97547.19;3138438;28;19974;-80
2021/01/23 23:28:06;;;;;;;;;;;;;;;4.09;75.73;97543.53;3133031;28;19924;-79
2021/01/23 23:29:37;;;;;;;;;;;;;;;4.04;75.57;97549.31;3131726;28;19960;-80
2021/01/23 23:31:10;;;;;;;;;;;;;;;4.08;75.64;97547.19;3128859;28;19925;-81
2021/01/23 23:32:40;;;;;;;;;;;;;;;4.11;76.06;97549.50;3134865;28;19925;-80
2021/01/23 23:34:12;;;;;;;;;;;;;;;4.10;76.21;97551.31;3134073;28;19925;-81
2021/01/23 23:35:43;;;;;;;;;;;;;;;4.16;76.22;97547.19;3130378;28;19926;-81
2021/01/23 23:37:14;;;;;;;;;;;;;;;4.13;75.95;97547.50;3131294;28;19943;-81
2021/01/23 23:38:45;;;;;;;;;;;;;;;4.09;75.66;97551.47;3125277;28;19925;-81
2021/01/23 23:40:16;;;;;;;;;;;;;;;4.16;75.70;97536.59;3130398;28;20457;-80
2021/01/23 23:41:48;;;;;;;;;;;;;;;4.10;75.56;97540.72;3134754;28;19963;-79
2021/01/23 23:43:19;;;;;;;;;;;;;;;4.04;75.98;97544.84;3133373;28;19956;-81
2021/01/23 23:44:49;;;;;;;;;;;;;;;4.04;75.80;97549.31;3132957;28;19936;-81
2021/01/23 23:46:21;;;;;;;;;;;;;;;3.99;75.71;97541.03;3133566;28;20314;-81
2021/01/23 23:47:52;;;;;;;;;;;;;;;3.99;76.52;97546.34;3132005;28;20047;-81
2021/01/23 23:49:25;;;;;;;;;;;;;;;3.98;76.41;97550.81;3133504;28;19935;-81
2021/01/23 23:50:56;;;;;;;;;;;;;;;4.00;76.09;97540.06;3141662;28;20243;-81
2021/01/23 23:52:27;;;;;;;;;;;;;;;4.03;76.42;97547.66;3131533;28;19952;-80
2021/01/23 23:53:58;;;;;;;;;;;;;;;4.03;75.86;97545.03;3135147;28;20025;-81
2021/01/23 23:55:29;;;;;;;;;;;;;;;3.98;76.10;97545.53;3132531;28;19924;-81
2021/01/23 23:57:00;;;;;;;;;;;;;;;3.97;76.06;97545.69;3135349;28;19959;-81
2021/01/23 23:58:31;;;;;;;;;;;;;;;3.92;76.46;97540.06;3132438;28;19929;-80
